TimeCST,TemperatureF,Dew PointF,Humidity,Sea Level PressureIn,VisibilityMPH,Wind Direction,Wind SpeedMPH,Gust SpeedMPH,PrecipitationIn,Events,Conditions,WindDirDegrees,DateUTC
12:15 AM,31.1,30.6,98,30.15,5.0,Calm,Calm,-,N/A,,Overcast,0,2014-02-09 06:15:00
12:35 AM,30.9,30.7,99,30.15,5.0,Calm,Calm,-,N/A,,Overcast,0,2014-02-09 06:35:00
12:55 AM,31.1,30.7,99,30.15,5.0,Calm,Calm,-,N/A,,Overcast,0,2014-02-09 06:55:00
1:15 AM,31.1,30.7,99,30.15,5.0,Calm,Calm,-,N/A,,Overcast,0,2014-02-09 07:15:00
1:35 AM,31.1,30.7,99,30.15,5.0,WSW,3.5,-,N/A,,Overcast,240,2014-02-09 07:35:00
1:55 AM,31.1,30.7,99,30.15,5.0,West,4.6,-,N/A,,Overcast,280,2014-02-09 07:55:00
2:15 AM,31.5,30.2,95,30.15,5.0,West,5.8,-,N/A,,Overcast,280,2014-02-09 08:15:00
2:35 AM,31.1,30.2,96,30.15,5.0,WNW,5.8,-,N/A,,Overcast,300,2014-02-09 08:35:00
2:55 AM,31.1,30.2,96,30.15,5.0,West,4.6,-,N/A,,Overcast,280,2014-02-09 08:55:00
3:15 AM,30.9,29.8,96,30.14,5.0,WNW,3.5,-,N/A,,Overcast,290,2014-02-09 09:15:00
3:35 AM,30.7,30.0,97,30.13,5.0,Calm,Calm,-,N/A,,Overcast,0,2014-02-09 09:35:00
3:55 AM,30.6,30.0,98,30.13,5.0,Calm,Calm,-,N/A,,Overcast,0,2014-02-09 09:55:00
4:15 AM,30.4,30.0,99,30.13,5.0,NNW,3.5,-,N/A,,Overcast,340,2014-02-09 10:15:00
4:35 AM,30.2,30.0,99,30.13,4.0,NNW,4.6,-,N/A,,Overcast,340,2014-02-09 10:35:00
4:55 AM,30.2,30.2,100,30.14,4.0,NNW,8.1,-,N/A,,Overcast,340,2014-02-09 10:55:00
5:15 AM,29.8,28.6,95,30.14,7.0,North,6.9,-,N/A,,Overcast,360,2014-02-09 11:15:00
5:35 AM,29.8,27.9,92,30.15,10.0,NNW,5.8,-,N/A,,Overcast,330,2014-02-09 11:35:00
6:00 AM,29.8,27.5,91,30.15,10.0,NNW,3.5,-,N/A,,Overcast,340,2014-02-09 12:00:00
6:15 AM,29.7,27.5,92,30.17,10.0,NW,5.8,-,N/A,,Overcast,320,2014-02-09 12:15:00
6:35 AM,29.5,26.8,90,30.17,10.0,NNW,4.6,-,N/A,,Overcast,340,2014-02-09 12:35:00
6:55 AM,29.3,25.3,85,30.17,10.0,NNW,6.9,-,N/A,,Overcast,340,2014-02-09 12:55:00
7:15 AM,29.1,24.4,83,30.16,10.0,North,4.6,-,N/A,,Overcast,360,2014-02-09 13:15:00
7:35 AM,28.9,24.6,84,30.17,10.0,NNW,3.5,-,N/A,,Overcast,330,2014-02-09 13:35:00
7:55 AM,29.3,24.4,82,30.19,10.0,NW,4.6,-,N/A,,Overcast,320,2014-02-09 13:55:00
8:15 AM,29.3,25.2,85,30.19,10.0,NW,4.6,-,N/A,,Overcast,310,2014-02-09 14:15:00
8:35 AM,29.7,24.8,82,30.19,10.0,NW,4.6,-,N/A,,Overcast,320,2014-02-09 14:35:00
8:55 AM,29.8,25.2,83,30.20,10.0,WNW,4.6,-,N/A,,Overcast,300,2014-02-09 14:55:00
9:15 AM,30.0,24.8,81,30.20,10.0,NW,6.9,-,N/A,,Overcast,320,2014-02-09 15:15:00
9:35 AM,30.2,25.0,81,30.22,7.0,NW,8.1,-,N/A,,Overcast,320,2014-02-09 15:35:00
9:55 AM,30.7,25.3,80,30.22,7.0,NW,9.2,-,N/A,,Overcast,320,2014-02-09 15:55:00
10:15 AM,30.7,25.3,80,30.20,10.0,NW,5.8,-,N/A,,Overcast,320,2014-02-09 16:15:00
10:35 AM,30.9,25.9,82,30.20,10.0,NW,8.1,-,N/A,,Overcast,320,2014-02-09 16:35:00
10:55 AM,31.5,25.7,79,30.20,10.0,NW,5.8,-,N/A,,Scattered Clouds,310,2014-02-09 16:55:00
11:15 AM,31.6,25.3,78,30.20,10.0,NW,6.9,-,N/A,,Clear,320,2014-02-09 17:15:00
11:35 AM,32.2,25.7,77,30.20,7.0,NW,8.1,-,N/A,,Clear,310,2014-02-09 17:35:00
11:55 AM,32.0,25.3,76,30.18,7.0,NW,10.4,-,N/A,,Mostly Cloudy,320,2014-02-09 17:55:00
12:15 PM,32.0,25.3,76,30.17,7.0,WNW,5.8,-,N/A,,Overcast,300,2014-02-09 18:15:00
12:35 PM,32.0,25.3,76,30.16,7.0,NNW,6.9,-,N/A,,Overcast,340,2014-02-09 18:35:00
12:55 PM,32.0,25.3,76,30.17,10.0,NNW,6.9,-,N/A,,Overcast,330,2014-02-09 18:55:00
1:15 PM,32.0,25.0,75,30.17,10.0,NW,9.2,-,N/A,,Overcast,310,2014-02-09 19:15:00
1:35 PM,32.0,25.2,76,30.19,10.0,NW,11.5,-,N/A,,Mostly Cloudy,320,2014-02-09 19:35:00
1:55 PM,32.0,25.5,77,30.18,10.0,NW,10.4,-,N/A,,Scattered Clouds,320,2014-02-09 19:55:00
2:15 PM,31.8,25.0,76,30.19,10.0,NW,9.2,-,N/A,,Mostly Cloudy,320,2014-02-09 20:15:00
2:35 PM,31.6,24.4,75,30.19,10.0,NW,6.9,-,N/A,,Mostly Cloudy,310,2014-02-09 20:35:00
2:55 PM,31.1,23.7,74,30.20,10.0,NW,11.5,-,N/A,,Mostly Cloudy,320,2014-02-09 20:55:00
3:15 PM,31.1,23.0,72,30.22,10.0,NW,11.5,-,N/A,,Mostly Cloudy,320,2014-02-09 21:15:00
3:35 PM,30.7,22.5,71,30.23,10.0,NW,11.5,-,N/A,,Overcast,320,2014-02-09 21:35:00
3:55 PM,30.6,22.5,72,30.24,10.0,NW,12.7,-,N/A,,Overcast,320,2014-02-09 21:55:00
4:15 PM,28.8,24.8,85,30.25,1.0,NNW,10.4,-,N/A,Snow,Light Snow,330,2014-02-09 22:15:00
4:35 PM,27.5,24.4,88,30.25,1.2,NW,10.4,-,N/A,Snow,Light Snow,320,2014-02-09 22:35:00
4:55 PM,26.8,24.4,91,30.25,1.0,NNW,9.2,-,N/A,Snow,Light Snow,330,2014-02-09 22:55:00
5:15 PM,26.6,24.8,93,30.26,2.5,WNW,5.8,-,N/A,Snow,Light Snow,300,2014-02-09 23:15:00
5:35 PM,26.6,24.6,92,30.26,2.5,NW,4.6,-,N/A,Snow,Light Snow,310,2014-02-09 23:35:00
5:55 PM,26.4,24.3,92,30.29,3.0,WNW,5.8,-,N/A,Snow,Light Snow,300,2014-02-09 23:55:00
6:15 PM,26.2,23.2,88,30.29,2.5,WNW,5.8,-,N/A,Snow,Light Snow,300,2014-02-10 00:15:00
6:35 PM,25.7,23.7,92,30.30,2.0,WNW,5.8,-,N/A,Snow,Light Snow,290,2014-02-10 00:35:00
6:55 PM,25.5,23.7,93,30.30,1.2,NW,6.9,-,N/A,Snow,Light Snow,320,2014-02-10 00:55:00
7:15 PM,25.2,23.7,94,30.29,2.0,North,6.9,-,N/A,Snow,Light Snow,360,2014-02-10 01:15:00
7:35 PM,24.4,22.8,94,30.29,3.0,North,10.4,-,N/A,Snow,Light Snow,360,2014-02-10 01:35:00
7:55 PM,23.5,21.2,91,30.29,5.0,North,13.8,-,N/A,Snow,Light Snow,350,2014-02-10 01:55:00
8:15 PM,23.0,19.9,88,30.31,7.0,North,9.2,-,N/A,Snow,Light Snow,350,2014-02-10 02:15:00
8:35 PM,22.8,19.4,87,30.30,5.0,North,10.4,-,N/A,Snow,Light Snow,350,2014-02-10 02:35:00
8:55 PM,22.5,19.2,87,30.31,4.0,NNW,10.4,-,N/A,Snow,Light Snow,340,2014-02-10 02:55:00
9:15 PM,22.1,19.9,91,30.32,4.0,North,9.2,-,N/A,Snow,Light Snow,350,2014-02-10 03:15:00
9:35 PM,22.1,19.2,89,30.32,5.0,North,6.9,-,N/A,Snow,Light Snow,350,2014-02-10 03:35:00
9:55 PM,22.1,18.7,87,30.32,7.0,North,4.6,-,N/A,,Overcast,350,2014-02-10 03:55:00
10:15 PM,22.1,18.3,85,30.32,10.0,NNW,5.8,-,N/A,,Overcast,340,2014-02-10 04:15:00
10:35 PM,21.9,18.1,85,30.32,10.0,North,4.6,-,N/A,,Overcast,360,2014-02-10 04:35:00
10:55 PM,21.9,17.6,83,30.32,10.0,North,8.1,-,N/A,,Overcast,350,2014-02-10 04:55:00
11:15 PM,21.9,16.9,81,30.32,10.0,North,9.2,-,N/A,,Overcast,350,2014-02-10 05:15:00
11:35 PM,21.7,15.4,77,30.31,10.0,North,11.5,-,N/A,,Overcast,350,2014-02-10 05:35:00
11:55 PM,21.2,15.1,77,30.31,10.0,North,9.2,-,N/A,,Overcast,350,2014-02-10 05:55:00